Time;durP1;ratioP1;P1;durP2;ratioP2;P2;SDS_P1;SDS_P2;PMS_P1;PMS_P2;Temp;Humidity;BMP_temperature;BMP_pressure;BME280_temperature;BME280_humidity;BME280_pressure;Samples;Min_cycle;Max_cycle;Signal;HPM_P1;HPM_P2
2021/12/10 00:01:32;;;;;;;3.60;3.30;;;;;;;14.39;46.54;95471.28;4958113;28;20198;-87
2021/12/10 00:04:00;;;;;;;3.47;3.17;;;;;;;13.46;46.44;95321.63;4960621;28;20195;-85
2021/12/10 00:06:31;;;;;;;3.30;3.00;;;;;;;19.15;46.76;96265.53;4976618;28;20298;-85
2021/12/10 00:09:00;;;;;;;3.30;3.00;;;;;;;17.22;47.31;95997.13;4989527;28;20297;-85
2021/12/10 00:11:51;;;;;;;3.47;3.00;;;;;;;17.64;47.05;96046.31;4963408;28;20198;-84
2021/12/10 00:14:19;;;;;;;3.00;2.70;;;;;;;18.48;46.97;96133.63;4965635;28;20226;-85
2021/12/10 00:16:45;;;;;;;3.47;2.80;;;;;;;17.75;47.04;96016.91;4979436;28;20254;-85
2021/12/10 00:19:25;;;;;;;3.13;2.83;;;;;;;17.58;46.69;95994.50;4965715;28;20342;-82
2021/12/10 00:21:57;;;;;;;2.90;2.60;;;;;;;13.72;46.92;95334.09;4967406;28;20199;-85
2021/12/10 00:24:27;;;;;;;2.80;2.60;;;;;;;13.57;46.91;95293.34;4979110;28;20214;-86
2021/12/10 00:26:54;;;;;;;2.77;2.53;;;;;;;12.01;46.97;95035.63;4964628;28;20207;-83
2021/12/10 00:29:25;;;;;;;3.40;3.10;;;;;;;16.68;46.97;95802.25;4949143;28;20654;-84
2021/12/10 00:31:56;;;;;;;2.90;2.60;;;;;;;17.97;46.90;96058.88;4958954;28;20555;-86
2021/12/10 00:34:40;;;;;;;2.90;2.60;;;;;;;19.16;46.87;96224.00;4959139;28;20729;-84
2021/12/10 00:37:10;;;;;;;3.03;2.73;;;;;;;13.92;46.95;95438.91;4973428;28;20676;-85
2021/12/10 00:39:43;;;;;;;3.10;2.80;;;;;;;10.65;46.92;94811.50;4957757;28;20599;-86
2021/12/10 00:42:13;;;;;;;2.80;2.60;;;;;;;14.77;46.80;95532.00;4966665;28;20212;-85
2021/12/10 00:44:39;;;;;;;3.60;2.90;;;;;;;15.42;47.18;95574.88;4973965;28;20294;-85
2021/12/10 00:47:08;;;;;;;2.53;2.33;;;;;;;14.85;46.84;95490.03;4977073;28;20665;-87
2021/12/10 00:49:36;;;;;;;3.10;2.50;;;;;;;14.76;46.59;95467.09;4962520;28;20227;-85
2021/12/10 00:52:05;;;;;;;3.10;2.50;;;;;;;14.28;46.50;95394.41;4972433;28;20199;-87
2021/12/10 00:54:31;;;;;;;2.97;2.67;;;;;;;14.87;47.10;95517.09;4961918;28;20195;-85
2021/12/10 00:56:58;;;;;;;3.20;2.90;;;;;;;15.08;46.93;95486.38;4993948;28;20203;-85
2021/12/10 00:59:25;;;;;;;2.90;2.70;;;;;;;19.11;46.95;96197.56;4993517;28;20249;-80
2021/12/10 01:01:54;;;;;;;3.00;2.80;;;;;;;15.94;47.22;95626.66;4961997;28;20230;-84
2021/12/10 01:04:27;;;;;;;2.47;2.27;;;;;;;16.28;47.10;95696.59;4948738;28;20564;-84
2021/12/10 01:06:55;;;;;;;2.50;2.30;;;;;;;15.15;47.14;95489.06;4958773;28;20267;-86
2021/12/10 01:09:25;;;;;;;2.83;2.53;;;;;;;17.65;47.14;95955.72;4977628;28;20747;-84
2021/12/10 01:11:59;;;;;;;2.60;2.40;;;;;;;14.88;47.19;95447.13;4978628;28;20649;-84
2021/12/10 01:28:58;;;;;;;2.87;2.53;;;;;;;17.80;46.94;95949.25;4961135;28;20234;-85
2021/12/10 01:31:24;;;;;;;2.50;2.30;;;;;;;14.95;47.09;95500.41;4972378;28;20198;-85
2021/12/10 01:33:52;;;;;;;2.87;2.67;;;;;;;12.12;46.75;94983.94;4994542;28;20223;-85
2021/12/10 01:36:19;;;;;;;3.80;2.63;;;;;;;16.77;47.04;95744.09;4977749;28;20252;-85
2021/12/10 01:38:46;;;;;;;3.10;2.50;;;;;;;14.12;46.75;95270.25;4992636;28;20213;-85
2021/12/10 01:41:16;;;;;;;3.23;2.60;;;;;;;13.51;46.75;95148.53;4974396;28;20556;-83
2021/12/10 01:43:44;;;;;;;2.80;2.50;;;;;;;12.01;47.13;94916.50;4962330;28;20191;-85
2021/12/10 01:46:24;;;;;;;2.40;2.20;;;;;;;15.04;46.80;95428.97;4974101;28;20211;-84
2021/12/10 01:48:58;;;;;;;2.70;2.50;;;;;;;17.86;47.23;95896.00;4979270;28;20572;-85
2021/12/10 01:51:26;;;;;;;2.60;2.40;;;;;;;18.18;46.97;95924.53;4962209;28;20234;-87
2021/12/10 01:53:55;;;;;;;2.40;2.20;;;;;;;18.13;47.06;95918.50;4962068;28;20218;-85
2021/12/10 01:56:27;;;;;;;2.53;2.33;;;;;;;14.19;47.01;95261.97;4958763;28;20208;-85
2021/12/10 01:58:54;;;;;;;2.90;2.60;;;;;;;16.99;47.11;95725.94;4958940;28;20716;-85
2021/12/10 02:01:26;;;;;;;2.60;2.40;;;;;;;14.97;47.02;95399.28;4975954;28;20203;-86
2021/12/10 02:03:56;;;;;;;2.47;2.20;;;;;;;17.87;46.71;95895.19;4952082;28;20218;-84
2021/12/10 02:06:23;;;;;;;2.60;2.33;;;;;;;14.84;47.12;95409.97;4961069;28;20190;-83
2021/12/10 02:08:50;;;;;;;2.50;2.30;;;;;;;15.41;47.07;95411.19;4977559;28;20510;-86
2021/12/10 02:11:18;;;;;;;2.67;2.30;;;;;;;15.30;47.32;95430.31;4978234;28;20226;-84
2021/12/10 02:13:45;;;;;;;2.67;2.40;;;;;;;13.49;47.04;95074.50;4977699;28;20219;-84
2021/12/10 02:16:12;;;;;;;2.53;2.33;;;;;;;15.81;46.85;95475.25;4962740;28;20218;-87
2021/12/10 02:18:49;;;;;;;2.40;2.20;;;;;;;14.84;47.05;95309.72;4958784;28;20203;-85
2021/12/10 02:21:20;;;;;;;2.83;2.20;;;;;;;13.44;46.99;95061.78;4959253;28;20225;-84
2021/12/10 02:23:58;;;;;;;2.53;2.33;;;;;;;13.11;46.81;95032.50;4959424;28;20191;-85
2021/12/10 02:26:28;;;;;;;2.47;2.27;;;;;;;16.59;47.08;95629.66;4988382;28;20202;-85
2021/12/10 02:28:55;;;;;;;2.87;2.57;;;;;;;16.62;47.31;95584.06;4978261;28;20605;-86
2021/12/10 02:31:22;;;;;;;2.30;2.07;;;;;;;14.60;47.04;95320.16;4963076;28;20206;-84
2021/12/10 02:33:49;;;;;;;4.00;2.60;;;;;;;17.36;46.69;95718.13;4977570;28;20226;-85
2021/12/10 02:36:23;;;;;;;2.33;2.13;;;;;;;12.22;46.66;94821.38;4978465;28;20559;-85
2021/12/10 02:38:51;;;;;;;2.33;2.13;;;;;;;15.15;46.86;95331.38;4957285;28;20263;-85
2021/12/10 02:41:20;;;;;;;2.60;2.40;;;;;;;15.07;47.05;95378.44;4961178;28;20198;-85
2021/12/10 02:43:47;;;;;;;2.40;2.20;;;;;;;14.04;46.95;95153.91;4977729;28;20202;-84
2021/12/10 02:46:13;;;;;;;2.47;2.27;;;;;;;12.85;47.26;94908.41;4961514;28;20218;-85
2021/12/10 02:48:40;;;;;;;2.50;2.30;;;;;;;15.65;47.05;95393.94;4974246;28;20215;-85
2021/12/10 02:51:09;;;;;;;2.40;2.20;;;;;;;13.14;46.55;95035.06;4965239;28;20287;-84
2021/12/10 02:53:41;;;;;;;2.53;2.00;;;;;;;13.57;47.16;95043.59;4976258;28;20221;-85
2021/12/10 02:56:18;;;;;;;2.10;1.90;;;;;;;16.05;47.09;95520.47;4977108;28;20179;-85
2021/12/10 02:58:46;;;;;;;2.50;2.30;;;;;;;13.37;46.81;95001.94;4977367;28;20206;-85
2021/12/10 03:01:32;;;;;;;2.00;1.90;;;;;;;19.14;47.42;95945.53;4976594;28;20286;-85
2021/12/10 03:03:59;;;;;;;2.90;2.30;;;;;;;17.37;47.31;95656.38;4976393;28;20280;-85
2021/12/10 03:06:27;;;;;;;2.40;2.20;;;;;;;15.85;47.00;95396.03;4959811;28;20195;-85
2021/12/10 03:08:54;;;;;;;2.40;2.20;;;;;;;12.66;46.66;94858.44;4960865;28;20292;-85
2021/12/10 03:11:26;;;;;;;2.40;2.20;;;;;;;14.88;47.08;95265.09;4976958;28;20261;-85
2021/12/10 03:13:54;;;;;;;2.73;2.33;;;;;;;14.55;47.31;95218.16;4967452;28;20223;-85
2021/12/10 03:16:21;;;;;;;2.67;2.17;;;;;;;12.03;47.01;94726.16;4963487;28;20203;-85
2021/12/10 03:18:48;;;;;;;2.33;2.13;;;;;;;12.54;47.01;94818.72;4979396;28;20231;-86
2021/12/10 03:21:15;;;;;;;2.47;2.27;;;;;;;15.98;47.51;95470.50;4964012;28;20318;-85
2021/12/10 03:23:44;;;;;;;2.40;2.20;;;;;;;17.67;47.29;95700.91;4995507;28;20244;-84
2021/12/10 03:26:19;;;;;;;2.67;2.30;;;;;;;12.68;46.84;94839.16;4961447;28;20234;-85
2021/12/10 03:28:46;;;;;;;2.70;2.50;;;;;;;17.35;46.87;95625.88;4964902;28;20249;-84
2021/12/10 03:31:13;;;;;;;3.23;2.50;;;;;;;14.89;47.22;95304.75;4963863;28;20221;-85
2021/12/10 03:33:41;;;;;;;2.40;2.20;;;;;;;17.16;47.15;95602.72;4963215;28;20714;-85
2021/12/10 03:36:09;;;;;;;2.13;1.97;;;;;;;17.59;47.13;95707.53;4963973;28;20203;-85
2021/12/10 03:38:36;;;;;;;2.30;2.10;;;;;;;16.83;47.18;95510.88;4979570;28;20207;-85
2021/12/10 03:41:04;;;;;;;2.40;2.20;;;;;;;13.30;47.22;94956.41;4995490;28;20238;-86
2021/12/10 03:43:30;;;;;;;2.83;2.53;;;;;;;15.77;47.11;95331.72;4978863;28;20226;-82
2021/12/10 03:45:58;;;;;;;1.90;1.80;;;;;;;18.80;46.80;95910.28;4979520;28;20203;-81
2021/12/10 03:51:27;;;;;;;2.53;2.30;;;;;;;13.08;47.07;94879.50;5104255;27;20543;-83
2021/12/10 03:53:54;;;;;;;2.53;2.10;;;;;;;15.75;47.09;95299.63;5053277;28;20649;-84
2021/12/10 03:56:22;;;;;;;2.40;2.03;;;;;;;14.47;46.71;95111.03;5053004;28;20200;-84
2021/12/10 03:58:49;;;;;;;2.07;1.87;;;;;;;13.48;47.04;94897.09;5070629;28;20196;-83
2021/12/10 04:01:20;;;;;;;2.27;2.07;;;;;;;14.60;46.69;95148.31;5069940;28;20200;-84
2021/12/10 04:03:47;;;;;;;2.23;2.03;;;;;;;12.48;47.02;94759.81;5069768;28;20207;-85
2021/12/10 04:06:14;;;;;;;2.87;2.07;;;;;;;13.37;47.16;94893.50;5069461;28;20192;-85
2021/12/10 04:08:41;;;;;;;2.50;2.30;;;;;;;14.95;47.21;95234.06;5037128;28;20196;-84
2021/12/10 04:11:09;;;;;;;2.43;2.10;;;;;;;13.90;47.23;94968.53;5070110;28;20231;-84
2021/12/10 04:13:36;;;;;;;2.60;2.40;;;;;;;14.75;47.06;95121.63;5053859;28;20262;-85
2021/12/10 04:16:03;;;;;;;2.40;2.13;;;;;;;14.64;47.11;95106.25;5037114;28;20684;-82
2021/12/10 04:18:35;;;;;;;2.53;2.33;;;;;;;17.89;47.45;95720.72;5037157;28;20678;-84
2021/12/10 04:21:07;;;;;;;2.27;2.07;;;;;;;17.45;47.24;95577.00;5070083;28;20483;-84
2021/12/10 04:23:36;;;;;;;2.50;2.30;;;;;;;16.88;46.83;95492.38;5035473;28;20236;-86
2021/12/10 04:26:03;;;;;;;2.30;1.90;;;;;;;15.69;47.16;95259.84;5067324;28;20208;-85
2021/12/10 04:28:29;;;;;;;2.57;2.10;;;;;;;17.64;47.06;95593.31;5051090;28;20235;-85
2021/12/10 04:30:56;;;;;;;2.30;2.10;;;;;;;14.71;47.14;95168.72;5066897;28;20216;-86
2021/12/10 04:33:25;;;;;;;2.70;2.20;;;;;;;19.00;47.37;95819.75;5054708;28;20201;-84
2021/12/10 04:35:53;;;;;;;2.50;2.10;;;;;;;17.41;47.13;95557.44;5053513;28;20207;-84
2021/12/10 04:38:21;;;;;;;2.30;2.10;;;;;;;17.62;47.06;95593.31;5032993;28;20660;-85
2021/12/10 04:40:48;;;;;;;2.00;1.90;;;;;;;15.56;47.14;95250.34;5058919;28;20253;-85
2021/12/10 04:43:22;;;;;;;2.67;2.20;;;;;;;14.36;47.18;95033.34;5048081;28;20204;-84
2021/12/10 04:45:52;;;;;;;2.13;1.97;;;;;;;19.11;47.09;95853.84;5047007;28;20662;-83
2021/12/10 04:48:18;;;;;;;1.90;1.80;;;;;;;18.66;47.04;95743.84;5043899;28;20225;-85
2021/12/10 04:50:45;;;;;;;2.13;1.93;;;;;;;18.91;47.39;95789.09;5033268;23;20242;-84
2021/12/10 04:53:12;;;;;;;2.20;2.00;;;;;;;18.99;47.36;95793.47;4997830;28;20842;-83
2021/12/10 04:55:40;;;;;;;2.33;2.13;;;;;;;18.31;47.36;95681.47;4989855;28;20194;-83
2021/12/10 04:58:07;;;;;;;1.90;1.80;;;;;;;18.84;47.45;95757.66;5006797;28;20280;-84
2021/12/10 05:00:43;;;;;;;2.00;1.90;;;;;;;19.12;47.27;95805.50;4986351;28;20252;-84
2021/12/10 05:03:11;;;;;;;2.13;1.93;;;;;;;18.75;47.46;95726.16;4993106;28;20261;-83
2021/12/10 05:05:38;;;;;;;2.20;2.00;;;;;;;18.82;46.86;95743.19;4983282;28;20316;-83
2021/12/10 05:08:05;;;;;;;2.13;2.00;;;;;;;18.77;46.76;95727.03;4975114;28;20283;-82
2021/12/10 05:10:32;;;;;;;2.00;1.90;;;;;;;18.83;46.84;95742.38;4967144;28;20639;-83
2021/12/10 05:12:58;;;;;;;1.90;1.80;;;;;;;18.89;47.11;95748.38;4971500;28;20253;-88
2021/12/10 05:15:27;;;;;;;2.53;2.33;;;;;;;18.29;46.85;95642.50;4984144;28;20626;-88
2021/12/10 05:17:53;;;;;;;2.40;2.20;;;;;;;18.82;46.94;95728.78;4990746;28;20306;-83
2021/12/10 05:20:29;;;;;;;3.73;2.80;;;;;;;18.75;44.38;95726.16;4993271;28;20218;-83
2021/12/10 05:22:56;;;;;;;3.00;2.70;;;;;;;18.93;45.13;95751.81;4956518;28;20507;-83
2021/12/10 05:25:25;;;;;;;3.13;2.83;;;;;;;18.99;44.79;95762.91;4973385;28;20247;-83
2021/12/10 05:27:51;;;;;;;2.97;2.67;;;;;;;18.98;44.94;95763.75;4961431;28;20314;-83
2021/12/10 05:30:19;;;;;;;2.50;2.30;;;;;;;19.04;45.28;95766.34;4969958;28;20326;-83
2021/12/10 05:32:46;;;;;;;2.90;2.30;;;;;;;18.60;45.51;95701.41;4960184;28;20682;-83
2021/12/10 05:35:12;;;;;;;2.70;2.50;;;;;;;18.91;45.62;95746.69;4963883;28;20237;-84
2021/12/10 05:37:39;;;;;;;2.73;2.33;;;;;;;18.75;45.43;95715.97;4959925;28;20370;-82
2021/12/10 05:40:07;;;;;;;2.50;2.30;;;;;;;18.74;45.84;95715.09;4973764;28;20318;-83
2021/12/10 05:42:34;;;;;;;2.23;2.03;;;;;;;18.85;45.99;95727.94;4954297;28;20206;-84
2021/12/10 05:45:00;;;;;;;2.53;2.20;;;;;;;18.71;45.98;95694.72;4957178;28;20238;-82
2021/12/10 05:47:27;;;;;;;2.70;2.10;;;;;;;18.83;46.08;95712.66;4961134;28;20648;-84
2021/12/10 05:49:53;;;;;;;2.37;2.17;;;;;;;19.03;46.29;95740.88;4976262;28;20231;-83
2021/12/10 05:52:20;;;;;;;2.80;2.07;;;;;;;18.86;46.16;95706.78;4958812;28;20262;-82
2021/12/10 05:54:47;;;;;;;2.33;2.13;;;;;;;18.89;46.55;95710.19;4959978;28;20239;-83
2021/12/10 05:57:13;;;;;;;3.63;1.90;;;;;;;18.90;46.35;95705.97;4985139;28;20652;-83
2021/12/10 05:59:40;;;;;;;2.07;1.97;;;;;;;18.83;46.22;95694.84;4973403;28;20230;-84
2021/12/10 06:02:06;;;;;;;2.13;1.90;;;;;;;18.91;46.65;95693.25;4956808;28;20238;-82
2021/12/10 06:04:34;;;;;;;4.23;2.10;;;;;;;19.12;46.64;95721.47;4975056;28;20218;-82
2021/12/10 06:07:03;;;;;;;2.27;2.00;;;;;;;18.71;46.55;95643.00;4976918;28;20207;-83
2021/12/10 06:09:29;;;;;;;3.50;2.03;;;;;;;18.82;46.49;95664.28;4954565;28;20261;-83
2021/12/10 06:11:56;;;;;;;3.43;2.70;;;;;;;19.13;44.90;95715.53;4987912;28;20293;-84
2021/12/10 06:14:22;;;;;;;3.27;2.70;;;;;;;18.88;43.04;95664.38;4971801;28;20212;-83
2021/12/10 06:16:52;;;;;;;4.97;2.83;;;;;;;18.86;41.44;95666.88;4957952;28;20214;-83
2021/12/10 06:19:19;;;;;;;3.20;2.90;;;;;;;18.86;40.37;95658.44;4972672;28;20230;-83
2021/12/10 06:21:46;;;;;;;3.47;2.97;;;;;;;18.97;39.63;95672.09;4983208;28;20211;-84
2021/12/10 06:24:12;;;;;;;3.53;3.23;;;;;;;18.81;38.98;95652.44;4968014;28;20243;-85
2021/12/10 06:26:39;;;;;;;2.87;2.47;;;;;;;18.81;39.24;95637.16;4995479;28;20233;-85
2021/12/10 06:29:06;;;;;;;5.50;2.53;;;;;;;18.64;39.74;95606.47;4974094;28;20681;-84
2021/12/10 06:31:33;;;;;;;4.73;2.80;;;;;;;18.77;40.77;95628.63;4971407;28;20228;-83
2021/12/10 06:34:00;;;;;;;3.10;2.53;;;;;;;18.65;41.42;95599.69;4978042;28;20206;-84
2021/12/10 06:36:27;;;;;;;6.07;2.70;;;;;;;18.60;41.73;95592.00;5002637;28;20254;-84
2021/12/10 06:38:53;;;;;;;3.60;2.53;;;;;;;18.78;41.97;95612.53;4965466;28;20227;-84
2021/12/10 06:41:21;;;;;;;2.67;2.30;;;;;;;18.86;42.65;95620.25;4953939;28;20195;-85
2021/12/10 06:43:47;;;;;;;2.47;2.27;;;;;;;18.21;42.94;95511.03;4981676;28;20325;-84
2021/12/10 06:46:14;;;;;;;2.73;2.50;;;;;;;18.59;42.87;95564.03;4978356;28;20210;-83
2021/12/10 06:48:41;;;;;;;3.97;2.67;;;;;;;18.94;43.45;95623.69;4992017;28;20270;-84
2021/12/10 06:51:14;;;;;;;2.77;2.30;;;;;;;18.89;43.40;95612.66;4971731;28;20233;-83
2021/12/10 06:53:41;;;;;;;2.77;2.23;;;;;;;18.57;43.69;95553.81;4972392;28;20230;-84
2021/12/10 06:56:08;;;;;;;2.20;2.00;;;;;;;18.79;43.72;95585.38;4955530;28;20659;-82
2021/12/10 06:58:35;;;;;;;2.20;2.00;;;;;;;18.77;43.70;95587.91;4963487;28;20234;-84
2021/12/10 07:01:09;;;;;;;2.10;1.90;;;;;;;18.82;43.83;95588.81;4996044;28;20613;-82
2021/12/10 07:03:36;;;;;;;2.73;1.90;;;;;;;18.83;44.07;95592.22;4988514;28;20230;-84
2021/12/10 07:06:03;;;;;;;2.87;2.00;;;;;;;18.68;44.19;95559.84;4974911;28;20223;-83
2021/12/10 07:08:30;;;;;;;2.50;1.97;;;;;;;18.75;44.17;95569.25;4972502;28;20281;-83
2021/12/10 07:10:57;;;;;;;3.27;2.10;;;;;;;18.89;44.03;95588.03;4952530;28;20624;-82
2021/12/10 07:13:24;;;;;;;2.37;2.10;;;;;;;18.74;44.19;95565.00;4961894;28;20213;-83
2021/12/10 07:15:50;;;;;;;3.00;2.30;;;;;;;18.78;44.50;95566.75;4981282;28;20199;-83
2021/12/10 07:18:19;;;;;;;1.80;1.70;;;;;;;18.85;44.33;95573.59;4973369;28;20290;-82
2021/12/10 07:20:46;;;;;;;2.07;1.63;;;;;;;18.87;44.55;95581.22;4987590;28;20739;-84
2021/12/10 07:23:14;;;;;;;1.87;1.67;;;;;;;18.76;44.33;95554.81;4964342;28;20242;-83
2021/12/10 07:25:40;;;;;;;2.43;1.70;;;;;;;18.86;44.24;95571.91;5010877;28;20203;-84
2021/12/10 07:28:07;;;;;;;2.10;1.90;;;;;;;18.92;44.62;95582.13;4956116;28;20207;-83
2021/12/10 07:30:33;;;;;;;1.97;1.77;;;;;;;18.73;44.51;95534.44;4982981;28;20659;-85
2021/12/10 07:33:03;;;;;;;3.27;2.00;;;;;;;18.48;44.54;95491.84;4977848;28;20220;-84
2021/12/10 07:35:29;;;;;;;2.57;2.03;;;;;;;18.77;44.37;95536.19;4990847;28;20202;-84
2021/12/10 07:37:56;;;;;;;2.10;1.90;;;;;;;18.80;44.39;95542.16;4971182;28;20239;-84
2021/12/10 07:40:24;;;;;;;2.10;1.90;;;;;;;18.74;44.47;95531.91;4954375;28;20251;-84
2021/12/10 07:42:51;;;;;;;1.80;1.70;;;;;;;18.64;44.55;95514.00;4992207;28;20322;-83
2021/12/10 07:45:20;;;;;;;3.83;1.80;;;;;;;18.96;44.60;95566.91;4997339;28;20290;-84
2021/12/10 07:47:49;;;;;;;2.13;1.90;;;;;;;18.74;44.56;95526.00;4970261;28;20289;-83
2021/12/10 07:50:18;;;;;;;2.20;1.77;;;;;;;18.84;44.09;95554.06;4964498;28;20305;-84
2021/12/10 07:52:45;;;;;;;1.90;1.70;;;;;;;18.85;45.10;95549.81;4983258;28;20238;-84
2021/12/10 07:55:13;;;;;;;3.00;1.80;;;;;;;18.71;44.75;95529.34;4988295;28;20214;-83
2021/12/10 07:57:41;;;;;;;2.00;1.80;;;;;;;18.89;44.77;95560.03;4989539;28;20293;-84
2021/12/10 08:00:09;;;;;;;3.80;1.70;;;;;;;18.75;44.83;95528.56;4989316;28;20255;-83
2021/12/10 08:02:36;;;;;;;1.90;1.70;;;;;;;18.86;44.70;95544.75;4954842;28;20723;-81
2021/12/10 08:05:03;;;;;;;2.00;1.80;;;;;;;19.02;44.51;95589.00;4951250;28;20200;-84
2021/12/10 08:07:30;;;;;;;1.90;1.70;;;;;;;18.61;44.62;95498.72;4955601;28;20294;-84
2021/12/10 08:09:56;;;;;;;2.10;1.80;;;;;;;18.86;44.63;95533.72;4984497;28;20249;-84
2021/12/10 08:12:23;;;;;;;1.73;1.63;;;;;;;19.14;44.85;95581.47;5006338;28;20273;-85
2021/12/10 08:14:53;;;;;;;2.10;1.93;;;;;;;19.14;44.65;95579.78;4970862;28;20714;-84
2021/12/10 08:17:20;;;;;;;2.80;2.00;;;;;;;18.90;44.92;95531.22;4996100;28;20213;-84
2021/12/10 08:19:47;;;;;;;2.10;1.90;;;;;;;18.81;44.64;95512.47;4990427;28;20716;-83
2021/12/10 08:22:14;;;;;;;1.83;1.70;;;;;;;18.87;44.69;95531.19;4988054;28;20290;-84
2021/12/10 08:24:41;;;;;;;1.97;1.73;;;;;;;19.15;44.77;95572.97;4955160;28;20230;-84
2021/12/10 08:27:08;;;;;;;2.20;1.90;;;;;;;18.46;44.72;95451.13;4986905;28;20234;-84
2021/12/10 08:29:35;;;;;;;2.07;1.77;;;;;;;18.83;45.03;95506.53;4971189;28;20257;-83
2021/12/10 08:32:02;;;;;;;1.83;1.70;;;;;;;18.85;44.96;95506.56;4984164;28;20322;-83
2021/12/10 08:34:30;;;;;;;2.83;1.83;;;;;;;18.82;44.63;95493.81;4986366;28;20207;-85
2021/12/10 08:36:56;;;;;;;2.00;1.80;;;;;;;18.95;44.93;95508.34;4972221;28;20230;-83
2021/12/10 08:39:23;;;;;;;2.17;1.70;;;;;;;18.77;44.53;95478.50;4989414;28;20314;-84
2021/12/10 08:41:50;;;;;;;2.30;1.80;;;;;;;18.84;44.82;95487.06;4966063;28;20290;-83
2021/12/10 08:44:17;;;;;;;2.00;1.83;;;;;;;18.89;45.02;95501.50;4958157;28;20207;-83
2021/12/10 08:46:44;;;;;;;1.80;1.70;;;;;;;19.02;44.77;95517.72;4954697;28;20730;-84
2021/12/10 08:49:10;;;;;;;2.57;2.00;;;;;;;18.81;44.63;95489.56;4958981;28;20293;-84
2021/12/10 08:51:40;;;;;;;2.27;2.00;;;;;;;18.50;45.08;95426.59;5008871;28;20244;-84
2021/12/10 08:54:08;;;;;;;1.77;1.67;;;;;;;18.64;45.09;95435.16;4995126;28;20231;-84
2021/12/10 08:56:35;;;;;;;2.00;1.80;;;;;;;18.81;44.66;95469.22;4958119;28;20329;-84
2021/12/10 08:59:02;;;;;;;2.53;1.97;;;;;;;18.80;44.98;95467.53;4973879;28;20668;-83
2021/12/10 09:01:33;;;;;;;2.20;2.00;;;;;;;18.96;44.95;95485.47;4972988;28;20202;-84
2021/12/10 09:04:01;;;;;;;2.20;1.90;;;;;;;18.80;44.96;95452.25;4974340;28;20215;-84
2021/12/10 09:06:29;;;;;;;2.63;1.97;;;;;;;18.92;45.13;95482.88;4973209;28;20212;-85
2021/12/10 09:08:56;;;;;;;2.10;1.83;;;;;;;18.86;45.03;95467.56;4974789;28;20238;-84
2021/12/10 09:11:23;;;;;;;2.73;2.03;;;;;;;18.81;44.91;95453.94;4964557;28;20255;-82
2021/12/10 09:14:10;;;;;;;2.90;2.13;;;;;;;18.79;44.80;95455.63;5005642;28;20217;-85
2021/12/10 09:16:37;;;;;;;2.33;2.13;;;;;;;18.93;44.67;95470.16;4980172;28;20305;-84
2021/12/10 09:19:06;;;;;;;3.13;2.20;;;;;;;18.95;44.82;95472.72;4975161;28;20654;-86
2021/12/10 09:21:33;;;;;;;3.43;2.10;;;;;;;18.96;44.92;95464.22;4976003;28;20203;-84
2021/12/10 09:24:04;;;;;;;4.77;3.17;;;;;;;18.95;44.48;95467.63;4986009;28;20281;-84
2021/12/10 09:26:41;;;;;;;8.70;3.17;;;;;;;18.91;44.29;95456.56;4989209;28;20203;-83
2021/12/10 09:29:09;;;;;;;9.17;2.67;;;;;;;19.00;46.21;95469.34;4976842;28;20300;-88
2021/12/10 09:31:38;;;;;;;5.80;2.70;;;;;;;19.11;45.44;95483.00;4975353;28;20527;-90
2021/12/10 09:34:06;;;;;;;3.77;2.53;;;;;;;18.72;44.97;95408.09;4962776;28;20214;-88
2021/12/10 09:36:33;;;;;;;5.73;2.70;;;;;;;18.93;45.18;95446.41;4993891;28;20207;-91
2021/12/10 09:38:59;;;;;;;4.97;2.80;;;;;;;18.71;44.90;95404.69;4995533;28;20665;-90
2021/12/10 09:41:26;;;;;;;5.37;2.57;;;;;;;18.85;44.77;95418.34;4996700;28;20636;-90
2021/12/10 09:43:53;;;;;;;5.20;2.73;;;;;;;18.84;44.75;95414.13;4979611;28;20695;-90
2021/12/10 09:46:19;;;;;;;4.73;3.00;;;;;;;19.19;44.51;95468.63;4999028;28;20211;-90
2021/12/10 09:48:46;;;;;;;4.47;3.13;;;;;;;18.84;44.57;95398.00;4980928;28;20209;-91
2021/12/10 09:51:19;;;;;;;4.70;2.97;;;;;;;18.90;44.21;95390.41;4976105;28;20255;-89
2021/12/10 09:53:47;;;;;;;6.83;2.77;;;;;;;19.28;44.22;95444.94;4983302;28;20203;-91
2021/12/10 09:56:14;;;;;;;4.30;2.87;;;;;;;19.25;44.46;95416.91;4956117;28;20243;-92
2021/12/10 09:58:46;;;;;;;4.97;2.80;;;;;;;19.48;43.61;95451.84;4971221;28;20203;-90
2021/12/10 10:01:19;;;;;;;3.83;3.03;;;;;;;19.31;43.75;95405.09;4981652;28;20258;-91
2021/12/10 10:03:48;;;;;;;3.90;2.47;;;;;;;19.24;43.49;95382.06;4987557;28;20204;-85
2021/12/10 10:06:14;;;;;;;3.73;2.67;;;;;;;19.38;43.46;95396.63;4959917;28;20700;-85
2021/12/10 10:08:41;;;;;;;4.63;2.73;;;;;;;19.45;43.28;95393.22;4961259;28;20671;-85
2021/12/10 10:11:19;;;;;;;3.93;2.80;;;;;;;19.52;43.10;95391.56;4960686;28;20489;-84
2021/12/10 10:13:47;;;;;;;9.33;2.77;;;;;;;19.34;42.93;95360.94;4956632;28;20254;-90
2021/12/10 10:16:13;;;;;;;3.90;2.60;;;;;;;19.63;43.15;95387.38;4974612;28;20286;-89
2021/12/10 10:18:41;;;;;;;4.40;2.90;;;;;;;19.24;42.92;95286.19;4979941;28;20245;-91
2021/12/10 10:21:12;;;;;;;4.30;2.60;;;;;;;19.25;42.80;95281.94;4979518;28;20246;-90
2021/12/10 10:23:41;;;;;;;3.13;2.40;;;;;;;19.52;43.03;95310.91;4978327;28;20656;-90
2021/12/10 10:26:12;;;;;;;4.33;2.40;;;;;;;19.35;43.15;95273.50;4980664;28;20229;-90
2021/12/10 10:28:39;;;;;;;3.17;2.60;;;;;;;19.48;43.04;95286.25;4980273;28;20195;-90
2021/12/10 10:31:10;;;;;;;3.27;2.30;;;;;;;19.55;43.08;95303.28;4995675;28;20289;-90
2021/12/10 10:33:37;;;;;;;3.87;2.40;;;;;;;19.61;43.14;95304.97;5010881;28;20203;-91
2021/12/10 10:36:18;;;;;;;3.10;2.30;;;;;;;19.70;43.33;95316.03;4963457;28;21078;-90
2021/12/10 10:38:50;;;;;;;2.80;2.20;;;;;;;19.32;43.09;95248.03;4981729;28;20191;-90
2021/12/10 10:41:19;;;;;;;4.60;2.73;;;;;;;19.35;43.09;95253.13;4994076;28;20281;-90
2021/12/10 10:43:46;;;;;;;3.20;2.27;;;;;;;19.56;42.98;95292.22;4964835;28;20202;-89
2021/12/10 10:46:12;;;;;;;3.53;2.60;;;;;;;19.35;42.89;95259.09;4964303;28;20257;-90
2021/12/10 10:48:40;;;;;;;3.10;2.17;;;;;;;19.76;43.13;95321.16;4964596;28;20199;-90
2021/12/10 10:51:10;;;;;;;3.13;2.30;;;;;;;19.68;43.30;95296.47;5024835;23;20237;-86
2021/12/10 10:53:49;;;;;;;2.70;2.20;;;;;;;19.02;42.96;95191.94;4988180;28;20226;-88
2021/12/10 10:56:32;;;;;;;3.87;2.47;;;;;;;19.26;42.74;95212.34;4981067;28;20222;-88
2021/12/10 10:59:02;;;;;;;3.83;2.37;;;;;;;19.21;42.71;95203.84;4981355;28;20227;-87
2021/12/10 11:01:40;;;;;;;2.37;2.17;;;;;;;18.38;42.24;95079.00;4996437;28;20249;-88
2021/12/10 11:04:35;;;;;;;3.20;2.60;;;;;;;19.64;40.02;95279.50;4984451;28;20581;-82
2021/12/10 11:07:31;;;;;;;4.63;2.63;;;;;;;19.87;39.16;95321.16;4961013;28;20210;-80
2021/12/10 11:10:02;;;;;;;3.67;2.60;;;;;;;19.73;39.00;95305.84;4967088;28;20274;-83
2021/12/10 11:12:34;;;;;;;4.13;2.80;;;;;;;19.46;38.94;95259.09;4962642;28;20304;-82
2021/12/10 11:15:01;;;;;;;7.40;3.20;;;;;;;19.60;38.38;95298.19;4967912;28;20342;-83
2021/12/10 11:17:33;;;;;;;4.30;2.90;;;;;;;19.30;38.13;95249.75;4986230;28;20230;-81
2021/12/10 11:20:04;;;;;;;6.70;3.10;;;;;;;19.23;37.95;95237.78;4969514;28;20784;-82
2021/12/10 11:22:31;;;;;;;3.60;2.43;;;;;;;18.69;37.78;95156.22;4986691;28;20971;-79
2021/12/10 11:25:23;;;;;;;4.53;2.80;;;;;;;19.74;37.50;95332.16;4995305;28;20291;-83
2021/12/10 11:27:50;;;;;;;4.03;2.87;;;;;;;19.25;37.77;95259.03;4985565;28;20235;-82
2021/12/10 11:30:21;;;;;;;3.67;2.93;;;;;;;19.17;37.58;95241.19;4981396;28;20250;-82
2021/12/10 11:33:00;;;;;;;6.27;2.80;;;;;;;18.74;38.74;95173.19;4972841;28;20249;-82
2021/12/10 11:35:33;;;;;;;3.87;2.80;;;;;;;19.43;39.05;95274.38;4971608;28;20211;-81
2021/12/10 11:38:17;;;;;;;2.90;2.40;;;;;;;17.57;40.46;94949.09;4971905;28;20255;-83
2021/12/10 11:40:49;;;;;;;3.40;2.70;;;;;;;19.64;40.77;95302.44;4941916;28;20257;-82
2021/12/10 11:46:05;;;;;;;3.97;2.20;;;;;;;19.63;40.76;95296.47;4992634;28;20234;-81
2021/12/10 11:48:34;;;;;;;2.40;1.93;;;;;;;19.36;40.85;95244.66;4981102;28;20642;-81
2021/12/10 11:51:16;;;;;;;3.00;2.40;;;;;;;19.49;41.06;95272.69;4982007;28;20230;-83
2021/12/10 11:53:45;;;;;;;2.90;2.30;;;;;;;19.36;40.61;95252.31;4970598;28;20238;-82
2021/12/10 11:56:15;;;;;;;3.10;2.20;;;;;;;19.61;40.61;95284.59;4997156;28;20207;-82
2021/12/10 11:58:41;;;;;;;2.97;2.00;;;;;;;19.61;40.42;95276.94;4968159;28;20298;-83
2021/12/10 12:01:17;;;;;;;3.90;2.20;;;;;;;19.17;40.60;95200.47;4968752;28;20297;-81
2021/12/10 12:03:44;;;;;;;2.97;2.10;;;;;;;19.24;41.01;95212.34;4984979;28;20226;-81